Time;durP1;ratioP1;P1;durP2;ratioP2;P2;SDS_P1;SDS_P2;PMS_P1;PMS_P2;Temp;Humidity;BMP_temperature;BMP_pressure;BME280_temperature;BME280_humidity;BME280_pressure;Samples;Min_cycle;Max_cycle;Signal;HPM_P1;HPM_P2
2024/01/02 00:02:05;;;;;;;;;;;;;;;;;;5091151;28;19985;-70
2024/01/02 00:04:32;;;;;;;;;;;;;;;;;;5092232;28;19985;-70
2024/01/02 00:06:59;;;;;;;;;;;;;;;;;;5092665;28;19932;-71
2024/01/02 00:09:27;;;;;;;;;;;;;;;;;;5089774;28;20027;-72
2024/01/02 00:11:54;;;;;;;;;;;;;;;;;;5089745;28;19985;-70
2024/01/02 00:14:21;;;;;;;;;;;;;;;;;;5091215;28;20355;-71
2024/01/02 00:16:49;;;;;;;;;;;;;;;;;;5082655;28;19924;-72
2024/01/02 00:19:16;;;;;;;;;;;;;;;;;;5092119;28;19928;-71
2024/01/02 00:21:43;;;;;;;;;;;;;;;;;;5090859;28;19924;-71
2024/01/02 00:24:10;;;;;;;;;;;;;;;;;;5085393;28;20288;-71
2024/01/02 00:26:38;;;;;;;;;;;;;;;;;;5092222;28;20421;-70
2024/01/02 00:29:05;;;;;;;;;;;;;;;;;;5091165;28;19924;-70
2024/01/02 00:31:32;;;;;;;;;;;;;;;;;;5092113;28;19931;-71
2024/01/02 00:34:01;;;;;;;;;;;;;;;;;;5087380;28;20390;-72
2024/01/02 00:36:28;;;;;;;;;;;;;;;;;;5087597;28;19950;-71
2024/01/02 00:38:56;;;;;;;;;;;;;;;;;;5088821;28;19977;-69
2024/01/02 00:41:23;;;;;;;;;;;;;;;;;;5090111;28;20010;-69
2024/01/02 00:43:50;;;;;;;;;;;;;;;;;;5089471;28;20015;-71
2024/01/02 00:46:18;;;;;;;;;;;;;;;;;;5090681;28;20085;-71
2024/01/02 00:48:45;;;;;;;;;;;;;;;;;;5092715;28;20317;-70
2024/01/02 00:51:12;;;;;;;;;;;;;;;;;;5087348;28;20056;-71
2024/01/02 00:53:39;;;;;;;;;;;;;;;;;;5091967;28;19981;-70
2024/01/02 00:56:06;;;;;;;;;;;;;;;;;;5090980;28;19985;-70
2024/01/02 00:58:33;;;;;;;;;;;;;;;;;;5090610;28;19970;-70
2024/01/02 01:01:00;;;;;;;;;;;;;;;;;;5091005;28;19970;-70
2024/01/02 01:03:27;;;;;;;;;;;;;;;;;;5085506;28;19928;-70
2024/01/02 01:05:54;;;;;;;;;;;;;;;;;;5087451;28;19977;-69
2024/01/02 01:08:21;;;;;;;;;;;;;;;;;;5086257;28;19977;-70
2024/01/02 01:10:49;;;;;;;;;;;;;;;;;;5091119;28;19928;-70
2024/01/02 01:13:16;;;;;;;;;;;;;;;;;;5091526;28;19931;-70
2024/01/02 01:15:43;;;;;;;;;;;;;;;;;;5090503;28;19924;-70
2024/01/02 01:18:10;;;;;;;;;;;;;;;;;;5090724;28;19982;-70
2024/01/02 01:20:37;;;;;;;;;;;;;;;;;;5090207;28;20024;-70
2024/01/02 01:23:04;;;;;;;;;;;;;;;;;;5089094;28;20267;-71
2024/01/02 01:25:31;;;;;;;;;;;;;;;;;;5089565;28;19994;-71
2024/01/02 01:27:58;;;;;;;;;;;;;;;;;;5090652;28;19998;-70
2024/01/02 01:30:25;;;;;;;;;;;;;;;;;;5090248;28;20008;-70
2024/01/02 01:32:52;;;;;;;;;;;;;;;;;;5079565;28;19971;-71
2024/01/02 01:35:20;;;;;;;;;;;;;;;;;;5088355;28;20333;-71
2024/01/02 01:37:47;;;;;;;;;;;;;;;;;;5089338;28;19928;-71
2024/01/02 01:40:14;;;;;;;;;;;;;;;;;;5077776;28;19959;-71
2024/01/02 01:42:41;;;;;;;;;;;;;;;;;;5086911;28;20328;-70
2024/01/02 01:45:08;;;;;;;;;;;;;;;;;;5091024;28;20371;-71
2024/01/02 01:47:35;;;;;;;;;;;;;;;;;;5087969;28;20336;-70
2024/01/02 01:50:02;;;;;;;;;;;;;;;;;;5088670;28;20447;-73
2024/01/02 01:52:32;;;;;;;;;;;;;;;;;;5090928;28;19924;-70
2024/01/02 01:54:59;;;;;;;;;;;;;;;;;;5088976;28;20503;-70
2024/01/02 01:57:26;;;;;;;;;;;;;;;;;;5095235;28;19924;-70
2024/01/02 01:59:53;;;;;;;;;;;;;;;;;;5092276;28;19978;-69
2024/01/02 02:02:20;;;;;;;;;;;;;;;;;;5092411;28;19935;-70
2024/01/02 02:04:47;;;;;;;;;;;;;;;;;;5087834;28;19932;-70
2024/01/02 02:07:13;;;;;;;;;;;;;;;;;;5089148;28;19924;-70
2024/01/02 02:09:40;;;;;;;;;;;;;;;;;;5094237;28;19924;-70
2024/01/02 02:12:07;;;;;;;;;;;;;;;;;;5088604;28;20421;-70
2024/01/02 02:14:34;;;;;;;;;;;;;;;;;;5085136;28;19924;-70
2024/01/02 02:17:02;;;;;;;;;;;;;;;;;;5092227;28;19981;-71
2024/01/02 02:19:29;;;;;;;;;;;;;;;;;;5094815;28;20007;-70
2024/01/02 02:21:56;;;;;;;;;;;;;;;;;;5093797;28;19932;-70
2024/01/02 02:24:23;;;;;;;;;;;;;;;;;;5091345;28;19928;-70
2024/01/02 02:26:50;;;;;;;;;;;;;;;;;;5094385;28;19969;-69
2024/01/02 02:29:17;;;;;;;;;;;;;;;;;;5091122;28;19978;-71
2024/01/02 02:31:44;;;;;;;;;;;;;;;;;;5091752;28;20236;-71
2024/01/02 02:34:11;;;;;;;;;;;;;;;;;;5091999;28;19943;-70
2024/01/02 02:36:38;;;;;;;;;;;;;;;;;;5094780;28;19924;-70
2024/01/02 02:39:05;;;;;;;;;;;;;;;;;;5093649;28;19993;-70
2024/01/02 02:41:32;;;;;;;;;;;;;;;;;;5090410;28;19977;-70
2024/01/02 02:43:59;;;;;;;;;;;;;;;;;;5093689;28;19935;-70
2024/01/02 02:46:26;;;;;;;;;;;;;;;;;;5091363;28;19993;-69
2024/01/02 02:48:53;;;;;;;;;;;;;;;;;;5093200;28;19966;-70
2024/01/02 02:51:20;;;;;;;;;;;;;;;;;;5090711;28;19963;-70
2024/01/02 02:53:47;;;;;;;;;;;;;;;;;;5093704;28;20447;-70
2024/01/02 02:56:14;;;;;;;;;;;;;;;;;;5093570;28;20627;-71
2024/01/02 02:58:42;;;;;;;;;;;;;;;;;;5093449;28;19924;-70
2024/01/02 03:01:09;;;;;;;;;;;;;;;;;;5092514;28;19924;-70
2024/01/02 03:03:36;;;;;;;;;;;;;;;;;;5091229;28;19931;-70
2024/01/02 03:06:03;;;;;;;;;;;;;;;;;;5089073;28;19959;-70
2024/01/02 03:08:30;;;;;;;;;;;;;;;;;;5082940;28;19924;-70
2024/01/02 03:10:59;;;;;;;;;;;;;;;;;;5092205;28;19924;-70
2024/01/02 03:13:26;;;;;;;;;;;;;;;;;;5093583;28;20397;-70
2024/01/02 03:15:53;;;;;;;;;;;;;;;;;;5092013;28;19990;-70
2024/01/02 03:18:20;;;;;;;;;;;;;;;;;;5093555;28;19928;-70
2024/01/02 03:20:47;;;;;;;;;;;;;;;;;;5091967;28;19928;-70
2024/01/02 03:23:14;;;;;;;;;;;;;;;;;;5090974;28;19978;-69
2024/01/02 03:25:41;;;;;;;;;;;;;;;;;;5087245;28;19924;-70
2024/01/02 03:28:08;;;;;;;;;;;;;;;;;;5092559;28;20379;-70
2024/01/02 03:30:37;;;;;;;;;;;;;;;;;;5092343;28;19978;-70
2024/01/02 03:33:04;;;;;;;;;;;;;;;;;;5092918;28;19931;-70
2024/01/02 03:35:31;;;;;;;;;;;;;;;;;;5093578;28;20333;-70
2024/01/02 03:37:58;;;;;;;;;;;;;;;;;;5092214;28;20382;-69
2024/01/02 03:40:25;;;;;;;;;;;;;;;;;;5089378;28;20337;-70
2024/01/02 03:42:52;;;;;;;;;;;;;;;;;;5092612;28;20341;-70
2024/01/02 03:45:19;;;;;;;;;;;;;;;;;;5089063;28;19970;-70
2024/01/02 03:47:46;;;;;;;;;;;;;;;;;;5075253;28;19925;-69
2024/01/02 03:50:13;;;;;;;;;;;;;;;;;;5090718;28;19949;-70
2024/01/02 03:52:40;;;;;;;;;;;;;;;;;;5093746;28;19935;-69
2024/01/02 03:55:07;;;;;;;;;;;;;;;;;;5091973;28;19924;-69
2024/01/02 03:57:35;;;;;;;;;;;;;;;;;;5091155;28;20005;-70
2024/01/02 04:00:02;;;;;;;;;;;;;;;;;;5091249;28;19932;-70
2024/01/02 04:02:31;;;;;;;;;;;;;;;;;;5091314;28;20396;-70
2024/01/02 04:04:58;;;;;;;;;;;;;;;;;;5079831;28;19975;-70
2024/01/02 04:07:25;;;;;;;;;;;;;;;;;;5092622;28;19924;-70
2024/01/02 04:09:52;;;;;;;;;;;;;;;;;;5088894;28;19932;-70
2024/01/02 04:12:19;;;;;;;;;;;;;;;;;;5091868;28;19985;-71
2024/01/02 04:14:46;;;;;;;;;;;;;;;;;;5085675;28;19931;-71
2024/01/02 04:17:14;;;;;;;;;;;;;;;;;;5092079;28;19994;-70
2024/01/02 04:19:41;;;;;;;;;;;;;;;;;;5091331;28;19924;-70
2024/01/02 04:22:08;;;;;;;;;;;;;;;;;;5088789;28;19924;-70
2024/01/02 04:24:35;;;;;;;;;;;;;;;;;;5087951;28;20383;-70
2024/01/02 04:27:02;;;;;;;;;;;;;;;;;;5087018;28;20406;-70
2024/01/02 04:29:29;;;;;;;;;;;;;;;;;;5073693;28;20627;-70
2024/01/02 04:31:56;;;;;;;;;;;;;;;;;;5080622;28;20340;-70
2024/01/02 04:34:23;;;;;;;;;;;;;;;;;;5092091;28;19924;-69
2024/01/02 04:36:50;;;;;;;;;;;;;;;;;;5089964;28;19938;-70
2024/01/02 04:39:17;;;;;;;;;;;;;;;;;;5090412;28;19985;-70
2024/01/02 04:41:44;;;;;;;;;;;;;;;;;;5089206;28;19928;-70
2024/01/02 04:44:11;;;;;;;;;;;;;;;;;;5088169;28;20053;-70
2024/01/02 04:46:38;;;;;;;;;;;;;;;;;;5091756;28;19928;-70
2024/01/02 04:49:05;;;;;;;;;;;;;;;;;;5088089;28;19928;-70
2024/01/02 04:51:33;;;;;;;;;;;;;;;;;;5089511;28;19985;-69
2024/01/02 04:53:59;;;;;;;;;;;;;;;;;;5091516;28;19928;-70
2024/01/02 04:56:26;;;;;;;;;;;;;;;;;;5090781;28;20299;-70
2024/01/02 04:58:53;;;;;;;;;;;;;;;;;;5090198;28;19924;-70
2024/01/02 05:01:20;;;;;;;;;;;;;;;;;;5090316;28;19928;-70
2024/01/02 05:03:47;;;;;;;;;;;;;;;;;;5087980;28;19931;-70
2024/01/02 05:06:14;;;;;;;;;;;;;;;;;;5087738;28;19928;-70
2024/01/02 05:08:41;;;;;;;;;;;;;;;;;;5091073;28;19928;-70
2024/01/02 05:11:08;;;;;;;;;;;;;;;;;;5091702;28;19927;-70
2024/01/02 05:13:35;;;;;;;;;;;;;;;;;;5090988;28;19947;-70
2024/01/02 05:16:02;;;;;;;;;;;;;;;;;;5086325;28;19924;-70
2024/01/02 05:18:30;;;;;;;;;;;;;;;;;;5091333;28;19924;-71
2024/01/02 05:20:57;;;;;;;;;;;;;;;;;;5088968;28;19931;-70
2024/01/02 05:23:24;;;;;;;;;;;;;;;;;;5088048;28;19931;-71
2024/01/02 05:25:51;;;;;;;;;;;;;;;;;;5090471;28;19928;-70
2024/01/02 05:28:18;;;;;;;;;;;;;;;;;;5090901;28;19924;-71
2024/01/02 05:30:45;;;;;;;;;;;;;;;;;;5097361;28;19924;-70
2024/01/02 05:33:12;;;;;;;;;;;;;;;;;;5097512;28;19978;-71
2024/01/02 05:35:39;;;;;;;;;;;;;;;;;;5097301;28;19925;-70
2024/01/02 05:38:06;;;;;;;;;;;;;;;;;;5096505;28;19963;-70
2024/01/02 05:40:33;;;;;;;;;;;;;;;;;;5088171;28;19924;-70
2024/01/02 05:43:00;;;;;;;;;;;;;;;;;;5097663;28;19924;-70
2024/01/02 05:45:27;;;;;;;;;;;;;;;;;;5098372;28;19928;-70
2024/01/02 05:47:54;;;;;;;;;;;;;;;;;;5097153;28;19928;-70
2024/01/02 05:50:21;;;;;;;;;;;;;;;;;;5095562;28;19982;-71
2024/01/02 05:52:48;;;;;;;;;;;;;;;;;;5096414;27;20020;-70
2024/01/02 05:55:16;;;;;;;;;;;;;;;;;;5094100;28;19923;-71
2024/01/02 05:57:43;;;;;;;;;;;;;;;;;;5096285;28;19939;-70
2024/01/02 06:00:10;;;;;;;;;;;;;;;;;;5092483;28;19977;-70
2024/01/02 06:02:37;;;;;;;;;;;;;;;;;;5096971;28;19985;-71
2024/01/02 06:05:04;;;;;;;;;;;;;;;;;;5088352;28;20345;-70
2024/01/02 06:07:31;;;;;;;;;;;;;;;;;;5091424;28;19928;-71
2024/01/02 06:09:58;;;;;;;;;;;;;;;;;;5094509;28;19924;-70
2024/01/02 06:12:25;;;;;;;;;;;;;;;;;;5097253;28;19927;-71
2024/01/02 06:14:52;;;;;;;;;;;;;;;;;;5094969;28;19924;-71
2024/01/02 06:17:19;;;;;;;;;;;;;;;;;;5095997;28;19931;-71
2024/01/02 06:19:46;;;;;;;;;;;;;;;;;;5094865;28;19932;-71
2024/01/02 06:22:13;;;;;;;;;;;;;;;;;;5095421;28;19978;-71
2024/01/02 06:24:40;;;;;;;;;;;;;;;;;;5095148;28;19989;-72
2024/01/02 06:27:08;;;;;;;;;;;;;;;;;;5097395;28;19924;-71
2024/01/02 06:29:35;;;;;;;;;;;;;;;;;;5097306;28;20298;-70
2024/01/02 06:32:03;;;;;;;;;;;;;;;;;;5090355;28;20005;-70
2024/01/02 06:34:30;;;;;;;;;;;;;;;;;;5096052;28;19924;-71
2024/01/02 06:36:57;;;;;;;;;;;;;;;;;;5097348;28;19977;-70
2024/01/02 06:39:24;;;;;;;;;;;;;;;;;;5092752;28;19928;-71
2024/01/02 06:41:51;;;;;;;;;;;;;;;;;;5094449;28;19928;-71
2024/01/02 06:44:18;;;;;;;;;;;;;;;;;;5093932;28;19976;-70
2024/01/02 06:46:45;;;;;;;;;;;;;;;;;;5093281;28;20472;-70
2024/01/02 06:49:12;;;;;;;;;;;;;;;;;;5092791;28;19924;-70
2024/01/02 06:51:39;;;;;;;;;;;;;;;;;;5091668;28;20407;-70
2024/01/02 06:54:07;;;;;;;;;;;;;;;;;;5093051;28;20387;-70
2024/01/02 06:56:34;;;;;;;;;;;;;;;;;;5093466;28;20447;-70
2024/01/02 06:59:01;;;;;;;;;;;;;;;;;;5093597;28;20338;-71
2024/01/02 07:01:28;;;;;;;;;;;;;;;;;;5092772;28;19928;-71
2024/01/02 07:03:55;;;;;;;;;;;;;;;;;;5090988;28;20006;-71
2024/01/02 07:06:22;;;;;;;;;;;;;;;;;;5091028;28;19924;-70
2024/01/02 07:08:49;;;;;;;;;;;;;;;;;;5086826;28;19970;-70
2024/01/02 07:11:16;;;;;;;;;;;;;;;;;;5089577;28;19924;-71
2024/01/02 07:13:43;;;;;;;;;;;;;;;;;;5090496;28;19924;-70
2024/01/02 07:16:10;;;;;;;;;;;;;;;;;;5074671;28;20018;-70
2024/01/02 07:18:38;;;;;;;;;;;;;;;;;;5081081;28;20069;-70
2024/01/02 07:21:05;;;;;;;;;;;;;;;;;;5090958;28;19928;-70
2024/01/02 07:23:32;;;;;;;;;;;;;;;;;;5091254;28;19924;-70
2024/01/02 07:26:00;;;;;;;;;;;;;;;;;;5088675;28;21327;-70
2024/01/02 07:28:27;;;;;;;;;;;;;;;;;;5084328;28;19938;-73
2024/01/02 07:30:54;;;;;;;;;;;;;;;;;;5086295;28;19924;-71
2024/01/02 07:33:21;;;;;;;;;;;;;;;;;;5086226;28;19931;-71
2024/01/02 07:35:48;;;;;;;;;;;;;;;;;;5091650;28;19985;-71
2024/01/02 07:38:15;;;;;;;;;;;;;;;;;;5088180;28;19924;-68
2024/01/02 07:40:42;;;;;;;;;;;;;;;;;;5091356;28;19928;-69
2024/01/02 07:43:09;;;;;;;;;;;;;;;;;;5083316;28;19977;-70
2024/01/02 07:45:35;;;;;;;;;;;;;;;;;;5088332;28;19977;-70
2024/01/02 07:48:02;;;;;;;;;;;;;;;;;;5085861;28;20030;-70
2024/01/02 07:50:29;;;;;;;;;;;;;;;;;;5088882;28;19924;-71
2024/01/02 07:52:56;;;;;;;;;;;;;;;;;;5083653;28;19955;-71
2024/01/02 07:55:23;;;;;;;;;;;;;;;;;;5084422;28;19928;-72
2024/01/02 07:57:50;;;;;;;;;;;;;;;;;;5090956;28;19953;-71
2024/01/02 08:00:17;;;;;;;;;;;;;;;;;;5083626;28;19950;-72
2024/01/02 08:02:44;;;;;;;;;;;;;;;;;;5084773;28;19970;-72
2024/01/02 08:05:12;;;;;;;;;;;;;;;;;;5083416;28;19924;-71
2024/01/02 08:07:39;;;;;;;;;;;;;;;;;;5086776;28;19924;-72
2024/01/02 08:10:06;;;;;;;;;;;;;;;;;;5085717;28;20302;-72
2024/01/02 08:12:33;;;;;;;;;;;;;;;;;;5088864;28;19924;-71
2024/01/02 08:15:01;;;;;;;;;;;;;;;;;;5087908;28;19947;-72
2024/01/02 08:17:28;;;;;;;;;;;;;;;;;;5084557;28;19931;-72
2024/01/02 08:19:55;;;;;;;;;;;;;;;;;;5086246;28;19932;-72
2024/01/02 08:22:22;;;;;;;;;;;;;;;;;;5086541;28;19932;-71
2024/01/02 08:24:49;;;;;;;;;;;;;;;;;;5086052;28;19935;-71
2024/01/02 08:27:16;;;;;;;;;;;;;;;;;;5082235;28;19924;-71
2024/01/02 08:29:44;;;;;;;;;;;;;;;;;;5085756;28;19924;-71
2024/01/02 08:32:11;;;;;;;;;;;;;;;;;;5087910;28;19924;-71
2024/01/02 08:34:39;;;;;;;;;;;;;;;;;;5086681;28;19978;-71
2024/01/02 08:37:06;;;;;;;;;;;;;;;;;;5078093;28;19932;-72
2024/01/02 08:39:33;;;;;;;;;;;;;;;;;;5086111;28;19931;-70
2024/01/02 08:42:00;;;;;;;;;;;;;;;;;;5085334;28;19939;-72
2024/01/02 08:44:27;;;;;;;;;;;;;;;;;;5081150;28;19931;-72
2024/01/02 08:46:54;;;;;;;;;;;;;;;;;;5080847;28;19931;-72
2024/01/02 08:49:21;;;;;;;;;;;;;;;;;;5081253;28;19925;-73
2024/01/02 08:51:48;;;;;;;;;;;;;;;;;;5086259;28;19962;-72
2024/01/02 08:54:15;;;;;;;;;;;;;;;;;;5080496;28;19924;-72
2024/01/02 08:56:43;;;;;;;;;;;;;;;;;;5089588;28;19928;-72
2024/01/02 08:59:10;;;;;;;;;;;;;;;;;;5089064;28;19924;-71
2024/01/02 09:01:37;;;;;;;;;;;;;;;;;;5087669;28;19928;-71
2024/01/02 09:04:04;;;;;;;;;;;;;;;;;;5079669;28;19971;-72
2024/01/02 09:06:31;;;;;;;;;;;;;;;;;;5079272;28;19931;-71
2024/01/02 09:08:58;;;;;;;;;;;;;;;;;;5087511;28;20347;-72
2024/01/02 09:11:25;;;;;;;;;;;;;;;;;;5082504;28;19932;-72
2024/01/02 09:13:52;;;;;;;;;;;;;;;;;;5084015;28;19946;-73
2024/01/02 09:16:19;;;;;;;;;;;;;;;;;;5085026;28;20383;-73
2024/01/02 09:18:46;;;;;;;;;;;;;;;;;;5080018;28;19924;-74
2024/01/02 09:21:13;;;;;;;;;;;;;;;;;;5086627;28;19960;-73
2024/01/02 09:23:40;;;;;;;;;;;;;;;;;;5080668;28;19931;-72
2024/01/02 09:26:08;;;;;;;;;;;;;;;;;;5083767;28;19924;-71
2024/01/02 09:28:35;;;;;;;;;;;;;;;;;;5081307;28;19924;-73
2024/01/02 09:31:02;;;;;;;;;;;;;;;;;;5084452;28;19985;-72
2024/01/02 09:33:29;;;;;;;;;;;;;;;;;;5086171;28;19932;-73
2024/01/02 09:35:57;;;;;;;;;;;;;;;;;;5087992;28;19997;-73
2024/01/02 09:38:24;;;;;;;;;;;;;;;;;;5086067;28;19932;-73
2024/01/02 09:40:51;;;;;;;;;;;;;;;;;;5081769;28;19932;-74
2024/01/02 09:43:18;;;;;;;;;;;;;;;;;;5085733;28;20011;-73
2024/01/02 09:45:47;;;;;;;;;;;;;;;;;;5090919;28;19993;-72
2024/01/02 09:48:14;;;;;;;;;;;;;;;;;;5088899;28;19924;-73
2024/01/02 09:50:41;;;;;;;;;;;;;;;;;;5084621;28;19936;-73
2024/01/02 09:53:08;;;;;;;;;;;;;;;;;;5081219;28;19978;-73
2024/01/02 09:55:35;;;;;;;;;;;;;;;;;;5089168;28;19989;-72
2024/01/02 09:58:03;;;;;;;;;;;;;;;;;;5090929;28;19938;-72
2024/01/02 10:00:30;;;;;;;;;;;;;;;;;;5089583;28;19936;-72
2024/01/02 10:02:56;;;;;;;;;;;;;;;;;;5087555;28;21834;-72
2024/01/02 10:05:23;;;;;;;;;;;;;;;;;;5081051;28;20291;-72
2024/01/02 10:07:50;;;;;;;;;;;;;;;;;;5079304;28;19978;-73
2024/01/02 10:10:17;;;;;;;;;;;;;;;;;;5084927;28;20040;-73
2024/01/02 10:12:44;;;;;;;;;;;;;;;;;;5071385;28;20028;-74
2024/01/02 10:15:11;;;;;;;;;;;;;;;;;;5084910;28;19924;-69
2024/01/02 10:17:38;;;;;;;;;;;;;;;;;;5084533;28;20504;-69
2024/01/02 10:20:06;;;;;;;;;;;;;;;;;;5077526;28;20300;-69
2024/01/02 10:22:33;;;;;;;;;;;;;;;;;;5085196;28;20011;-69
2024/01/02 10:25:00;;;;;;;;;;;;;;;;;;5083516;28;19928;-68
2024/01/02 10:27:27;;;;;;;;;;;;;;;;;;5080615;28;20028;-69
2024/01/02 10:29:55;;;;;;;;;;;;;;;;;;5079490;28;20357;-70
2024/01/02 10:32:22;;;;;;;;;;;;;;;;;;5086798;28;19940;-70
2024/01/02 10:34:49;;;;;;;;;;;;;;;;;;5087638;28;19925;-70
2024/01/02 10:37:16;;;;;;;;;;;;;;;;;;5083174;28;19924;-69
2024/01/02 10:39:43;;;;;;;;;;;;;;;;;;5084372;28;19924;-70
2024/01/02 10:42:10;;;;;;;;;;;;;;;;;;5088542;28;19924;-69
2024/01/02 10:44:37;;;;;;;;;;;;;;;;;;5080254;28;19956;-69
2024/01/02 10:47:05;;;;;;;;;;;;;;;;;;5087294;28;19936;-69
2024/01/02 10:49:32;;;;;;;;;;;;;;;;;;5081801;28;19924;-69
2024/01/02 10:51:59;;;;;;;;;;;;;;;;;;5079112;28;20006;-69
2024/01/02 10:54:26;;;;;;;;;;;;;;;;;;5081474;28;19972;-69
2024/01/02 10:56:53;;;;;;;;;;;;;;;;;;5086923;28;19924;-68
2024/01/02 10:59:21;;;;;;;;;;;;;;;;;;5078671;28;19932;-69
2024/01/02 11:01:48;;;;;;;;;;;;;;;;;;5078509;28;19967;-74
2024/01/02 11:04:15;;;;;;;;;;;;;;;;;;5076422;28;20019;-74
2024/01/02 11:06:42;;;;;;;;;;;;;;;;;;5080431;28;20395;-73
2024/01/02 11:09:09;;;;;;;;;;;;;;;;;;5076625;28;19924;-73
2024/01/02 11:11:36;;;;;;;;;;;;;;;;;;5083636;28;19993;-74
2024/01/02 11:14:04;;;;;;;;;;;;;;;;;;5079056;28;19979;-73
2024/01/02 11:16:31;;;;;;;;;;;;;;;;;;5081726;28;19928;-74
2024/01/02 11:18:58;;;;;;;;;;;;;;;;;;5084867;28;19978;-74
2024/01/02 11:21:28;;;;;;;;;;;;;;;;;;5084813;28;19928;-75
2024/01/02 11:23:55;;;;;;;;;;;;;;;;;;5079395;28;19947;-73
2024/01/02 11:26:22;;;;;;;;;;;;;;;;;;5076742;28;19925;-74
2024/01/02 11:28:50;;;;;;;;;;;;;;;;;;5083052;28;19933;-75
2024/01/02 11:31:17;;;;;;;;;;;;;;;;;;5075061;28;19928;-72
2024/01/02 11:33:44;;;;;;;;;;;;;;;;;;5077717;28;20646;-73
2024/01/02 11:36:11;;;;;;;;;;;;;;;;;;5078127;28;20371;-72
2024/01/02 11:38:38;;;;;;;;;;;;;;;;;;5077237;28;19989;-74
2024/01/02 11:41:06;;;;;;;;;;;;;;;;;;5070589;28;19969;-75
2024/01/02 11:43:33;;;;;;;;;;;;;;;;;;5078230;28;19998;-75
2024/01/02 11:46:00;;;;;;;;;;;;;;;;;;5061160;22;20324;-74
2024/01/02 11:48:27;;;;;;;;;;;;;;;;;;5047589;28;19936;-74
2024/01/02 11:50:55;;;;;;;;;;;;;;;;;;5058482;28;19952;-73
2024/01/02 11:53:22;;;;;;;;;;;;;;;;;;5056976;28;19924;-73
2024/01/02 11:55:49;;;;;;;;;;;;;;;;;;5057060;28;19940;-72
2024/01/02 11:58:16;;;;;;;;;;;;;;;;;;5062225;28;20002;-73
2024/01/02 12:00:43;;;;;;;;;;;;;;;;;;5059720;28;20009;-73
2024/01/02 12:03:10;;;;;;;;;;;;;;;;;;5059219;28;19960;-73
2024/01/02 12:05:38;;;;;;;;;;;;;;;;;;5060208;28;19978;-74
2024/01/02 12:08:05;;;;;;;;;;;;;;;;;;5065495;28;19956;-74
2024/01/02 12:10:32;;;;;;;;;;;;;;;;;;5056073;28;19975;-72
2024/01/02 12:13:00;;;;;;;;;;;;;;;;;;5055085;28;19986;-75
2024/01/02 12:15:28;;;;;;;;;;;;;;;;;;5062891;28;19992;-74
2024/01/02 12:17:55;;;;;;;;;;;;;;;;;;5059557;28;19963;-75
2024/01/02 12:20:22;;;;;;;;;;;;;;;;;;5051183;28;19924;-73
2024/01/02 12:22:49;;;;;;;;;;;;;;;;;;5056843;28;19933;-73
2024/01/02 12:25:16;;;;;;;;;;;;;;;;;;5059587;28;19925;-73
2024/01/02 12:27:43;;;;;;;;;;;;;;;;;;5063712;28;19929;-73
2024/01/02 12:30:10;;;;;;;;;;;;;;;;;;5058941;28;19925;-71
2024/01/02 12:32:37;;;;;;;;;;;;;;;;;;5063276;28;19925;-72
2024/01/02 12:35:05;;;;;;;;;;;;;;;;;;5062230;28;19929;-72
2024/01/02 12:37:32;;;;;;;;;;;;;;;;;;5053526;28;19924;-73
2024/01/02 12:39:59;;;;;;;;;;;;;;;;;;5053256;28;19924;-73
2024/01/02 12:42:28;;;;;;;;;;;;;;;;;;5057816;28;20433;-73
2024/01/02 12:44:55;;;;;;;;;;;;;;;;;;5063378;28;20306;-73
2024/01/02 12:47:22;;;;;;;;;;;;;;;;;;5057460;28;19932;-74
2024/01/02 12:49:49;;;;;;;;;;;;;;;;;;5061853;28;19924;-74
2024/01/02 12:52:16;;;;;;;;;;;;;;;;;;5060504;28;19932;-72
2024/01/02 12:54:43;;;;;;;;;;;;;;;;;;5055692;28;20346;-72
2024/01/02 12:57:11;;;;;;;;;;;;;;;;;;5060082;28;20451;-72
2024/01/02 12:59:38;;;;;;;;;;;;;;;;;;5063226;28;19924;-73
2024/01/02 13:02:05;;;;;;;;;;;;;;;;;;5063187;28;19924;-72
2024/01/02 13:04:35;;;;;;;;;;;;;;;;;;5061288;28;20120;-72
2024/01/02 13:07:02;;;;;;;;;;;;;;;;;;5065278;28;19968;-72
2024/01/02 13:09:29;;;;;;;;;;;;;;;;;;5063248;28;20433;-73
2024/01/02 13:11:56;;;;;;;;;;;;;;;;;;5057878;28;20345;-72
2024/01/02 13:14:23;;;;;;;;;;;;;;;;;;5067970;28;20556;-73
2024/01/02 13:16:50;;;;;;;;;;;;;;;;;;5064698;28;20342;-72
2024/01/02 13:19:17;;;;;;;;;;;;;;;;;;5054412;28;20383;-72
2024/01/02 13:21:45;;;;;;;;;;;;;;;;;;5062620;28;20027;-73
2024/01/02 13:24:12;;;;;;;;;;;;;;;;;;5056468;28;19925;-72
2024/01/02 13:26:39;;;;;;;;;;;;;;;;;;5061431;28;19925;-72
2024/01/02 13:29:06;;;;;;;;;;;;;;;;;;5056943;28;19930;-73
2024/01/02 13:31:33;;;;;;;;;;;;;;;;;;5066604;28;19928;-73
2024/01/02 13:34:01;;;;;;;;;;;;;;;;;;5056026;28;19924;-72
2024/01/02 13:36:28;;;;;;;;;;;;;;;;;;5063426;28;20029;-73
2024/01/02 13:38:55;;;;;;;;;;;;;;;;;;5062409;28;19928;-73
2024/01/02 13:41:24;;;;;;;;;;;;;;;;;;5060151;28;19925;-72
2024/01/02 13:43:51;;;;;;;;;;;;;;;;;;5058580;28;19924;-71
2024/01/02 13:46:20;;;;;;;;;;;;;;;;;;5067437;28;19925;-72
2024/01/02 13:48:47;;;;;;;;;;;;;;;;;;5058046;28;19929;-72
2024/01/02 13:51:14;;;;;;;;;;;;;;;;;;5065808;28;19933;-72
2024/01/02 13:53:41;;;;;;;;;;;;;;;;;;5065620;28;19978;-72
2024/01/02 13:56:08;;;;;;;;;;;;;;;;;;5066769;28;19970;-73
2024/01/02 13:58:36;;;;;;;;;;;;;;;;;;5068524;28;19924;-73
2024/01/02 14:01:03;;;;;;;;;;;;;;;;;;5067981;28;19935;-73
2024/01/02 14:03:30;;;;;;;;;;;;;;;;;;5070789;28;19925;-72
2024/01/02 14:05:57;;;;;;;;;;;;;;;;;;5064400;28;19967;-72
2024/01/02 14:08:25;;;;;;;;;;;;;;;;;;5064603;28;19924;-73
2024/01/02 14:10:54;;;;;;;;;;;;;;;;;;5059262;28;19924;-73
2024/01/02 14:13:21;;;;;;;;;;;;;;;;;;5061124;28;20022;-73
2024/01/02 14:15:48;;;;;;;;;;;;;;;;;;5061655;28;19924;-73
2024/01/02 14:18:15;;;;;;;;;;;;;;;;;;5060259;28;19929;-74
2024/01/02 14:20:42;;;;;;;;;;;;;;;;;;5066163;28;19935;-73
2024/01/02 14:23:09;;;;;;;;;;;;;;;;;;5061612;28;20406;-73
2024/01/02 14:25:36;;;;;;;;;;;;;;;;;;5067410;28;19936;-73
2024/01/02 14:28:03;;;;;;;;;;;;;;;;;;5063956;28;19968;-72
2024/01/02 14:30:30;;;;;;;;;;;;;;;;;;5066114;28;19932;-73
2024/01/02 14:32:57;;;;;;;;;;;;;;;;;;5065571;28;20124;-72
2024/01/02 14:35:24;;;;;;;;;;;;;;;;;;5065885;28;19924;-72
2024/01/02 14:37:51;;;;;;;;;;;;;;;;;;5059045;28;20404;-73
2024/01/02 14:40:21;;;;;;;;;;;;;;;;;;5065094;28;20418;-72
2024/01/02 14:42:48;;;;;;;;;;;;;;;;;;5065905;28;19925;-72
2024/01/02 14:45:15;;;;;;;;;;;;;;;;;;5069082;28;19928;-73
2024/01/02 14:47:43;;;;;;;;;;;;;;;;;;5064220;28;19942;-75
2024/01/02 14:50:10;;;;;;;;;;;;;;;;;;5064864;28;19928;-75
2024/01/02 14:52:37;;;;;;;;;;;;;;;;;;5063507;28;19928;-75
2024/01/02 14:55:05;;;;;;;;;;;;;;;;;;5076957;28;19924;-75
2024/01/02 14:57:32;;;;;;;;;;;;;;;;;;5071192;28;19924;-75
2024/01/02 14:59:59;;;;;;;;;;;;;;;;;;5058984;28;19995;-73
2024/01/02 15:02:26;;;;;;;;;;;;;;;;;;5069927;28;20589;-74
2024/01/02 15:04:53;;;;;;;;;;;;;;;;;;5066166;28;19950;-75
2024/01/02 15:07:20;;;;;;;;;;;;;;;;;;5063623;28;19940;-75
2024/01/02 15:09:47;;;;;;;;;;;;;;;;;;5060190;28;19929;-75
2024/01/02 15:12:14;;;;;;;;;;;;;;;;;;5067412;28;19932;-72
2024/01/02 15:14:41;;;;;;;;;;;;;;;;;;5063718;28;19936;-72
2024/01/02 15:17:09;;;;;;;;;;;;;;;;;;5063303;28;20020;-71
2024/01/02 15:19:36;;;;;;;;;;;;;;;;;;5067175;28;19970;-72
2024/01/02 15:22:03;;;;;;;;;;;;;;;;;;5058180;28;20043;-73
2024/01/02 15:24:30;;;;;;;;;;;;;;;;;;5062176;28;19929;-72
2024/01/02 15:26:58;;;;;;;;;;;;;;;;;;5061286;28;20401;-73
2024/01/02 15:29:25;;;;;;;;;;;;;;;;;;5060212;28;19998;-74
2024/01/02 15:31:53;;;;;;;;;;;;;;;;;;5059764;28;19947;-73
2024/01/02 15:34:20;;;;;;;;;;;;;;;;;;5062904;28;19992;-72
2024/01/02 15:36:47;;;;;;;;;;;;;;;;;;5063536;28;19924;-73
2024/01/02 15:39:14;;;;;;;;;;;;;;;;;;5062104;28;19936;-72
2024/01/02 15:41:41;;;;;;;;;;;;;;;;;;5058652;28;20013;-73
2024/01/02 15:44:08;;;;;;;;;;;;;;;;;;5051588;28;19936;-72
2024/01/02 15:46:35;;;;;;;;;;;;;;;;;;5065267;28;19925;-73
2024/01/02 15:49:03;;;;;;;;;;;;;;;;;;5063230;28;20407;-73
2024/01/02 15:51:30;;;;;;;;;;;;;;;;;;5060157;28;19979;-73
2024/01/02 15:53:57;;;;;;;;;;;;;;;;;;5063410;28;19928;-72
2024/01/02 15:56:24;;;;;;;;;;;;;;;;;;5069181;22;20353;-73
2024/01/02 15:58:51;;;;;;;;;;;;;;;;;;5076406;28;19932;-71
2024/01/02 16:01:18;;;;;;;;;;;;;;;;;;5075814;28;20364;-73
2024/01/02 16:03:46;;;;;;;;;;;;;;;;;;5080713;28;19928;-72
2024/01/02 16:06:13;;;;;;;;;;;;;;;;;;5077078;28;20331;-73
2024/01/02 16:08:40;;;;;;;;;;;;;;;;;;5083543;28;20521;-73
2024/01/02 16:11:07;;;;;;;;;;;;;;;;;;5084599;28;20299;-73
2024/01/02 16:13:34;;;;;;;;;;;;;;;;;;5075269;28;20011;-73
2024/01/02 16:16:01;;;;;;;;;;;;;;;;;;5075839;28;19928;-72
2024/01/02 16:18:28;;;;;;;;;;;;;;;;;;5075405;28;20292;-74
2024/01/02 16:20:55;;;;;;;;;;;;;;;;;;5089498;28;20387;-74
2024/01/02 16:23:22;;;;;;;;;;;;;;;;;;5090404;28;19980;-73
2024/01/02 16:25:49;;;;;;;;;;;;;;;;;;5074239;28;19924;-73
2024/01/02 16:28:16;;;;;;;;;;;;;;;;;;5078905;28;19951;-74
2024/01/02 16:30:43;;;;;;;;;;;;;;;;;;5080039;28;20387;-74
2024/01/02 16:33:10;;;;;;;;;;;;;;;;;;5082194;28;19972;-74
2024/01/02 16:35:37;;;;;;;;;;;;;;;;;;5083446;28;19924;-74
2024/01/02 16:38:04;;;;;;;;;;;;;;;;;;5080417;28;19928;-74
2024/01/02 16:40:32;;;;;;;;;;;;;;;;;;5086284;28;19924;-72
2024/01/02 16:42:59;;;;;;;;;;;;;;;;;;5075148;28;20049;-73
2024/01/02 16:45:26;;;;;;;;;;;;;;;;;;5081189;28;19950;-74